»·PEaware :: N6042N KSAC-C83

N6042N :: KSAC-C83

FLIGHT INFORMATION

Flight Status: Arrived
Operator: Privately registered:
United States
More flights under this callsign
Pilot: Matt C. (16379)
Aircraft: CESSNA 172 SKYHAWK
(C172)
More flights by this aircraft type
Origin: KSAC Sacramento Executive
United States
Destination: C83 Byron
United States
More flights between these airports :: More routes between these airports
Route: +
File this flight plan on PilotEdge
Remarks:
Altitude:
(Current/Filed)
0ft
Speed:
(Current/Filed)
0kts
Departed: 06-Oct-18 11:53 AM
Arrived: 06-Oct-18 12:13 PM
Distance/Time
Traveled:
19nm/0:20
Distance/Time
To Go:
Arrived

Flight Plot

Page will automatically refresh every two minutes.

Flight plan parsing failed; only flown route is shown


Map Options




Map Legend


Flown Route
Filed Route
Departure Airport
Arrival Airport
Navaid (VOR, NDB)
Fix

Horizontal Profiles

Position Reports

Time Latitude Longitude Heading Altitude Ground
Speed
06-Oct-18 11:39 38.513541 -121.497784 97 27ft 0kts
06-Oct-18 11:40 38.513541 -121.497784 97 27ft 0kts
06-Oct-18 11:41 38.513541 -121.497784 97 27ft 0kts
06-Oct-18 11:42 38.512556 -121.497175 202 27ft 0kts
06-Oct-18 11:43 38.511630 -121.498735 224 27ft 15kts
06-Oct-18 11:44 38.506702 -121.501246 159 27ft 13kts
06-Oct-18 11:45 38.506240 -121.501238 61 27ft 0kts
06-Oct-18 11:46 38.506241 -121.501234 65 27ft 0kts
06-Oct-18 11:47 38.506241 -121.501234 65 27ft 0kts
06-Oct-18 11:48 38.506241 -121.501235 65 27ft 0kts
06-Oct-18 11:49 38.506241 -121.501235 65 27ft 0kts
06-Oct-18 11:50 38.506241 -121.501235 65 27ft 0kts
06-Oct-18 11:51 38.506241 -121.501235 65 27ft 0kts
06-Oct-18 11:52 38.506241 -121.501235 65 27ft 0kts
06-Oct-18 11:53 38.506241 -121.501235 65 27ft 0kts
06-Oct-18 11:54 38.506241 -121.501235 65 27ft 0kts
06-Oct-18 11:55 38.510397 -121.496432 33 86ft 77kts
06-Oct-18 11:56 38.521647 -121.476620 131 998ft 78kts
06-Oct-18 11:57 38.501895 -121.479979 184 1828ft 84kts
06-Oct-18 11:58 38.477767 -121.486001 188 2517ft 92kts
06-Oct-18 11:59 38.422646 -121.501275 189 2616ft 115kts
06-Oct-18 12:00 38.358447 -121.516835 193 2647ft 113kts
06-Oct-18 12:01 38.297317 -121.543905 209 2548ft 119kts
06-Oct-18 12:02 38.232052 -121.558996 183 2395ft 119kts
06-Oct-18 12:03 38.167308 -121.569113 185 2500ft 115kts
06-Oct-18 12:04 38.102342 -121.575598 184 2425ft 120kts
06-Oct-18 12:05 38.050189 -121.583092 174 2376ft 119kts
06-Oct-18 12:06 38.017698 -121.585874 189 2125ft 125kts
06-Oct-18 12:07 37.985950 -121.595591 188 1973ft 115kts
06-Oct-18 12:08 37.955011 -121.599339 183 1583ft 108kts
06-Oct-18 12:09 37.924797 -121.606392 181 926ft 111kts
06-Oct-18 12:10 37.896713 -121.609085 186 1143ft 102kts
06-Oct-18 12:11 37.870185 -121.614755 190 1128ft 93kts
06-Oct-18 12:12 37.844645 -121.612880 179 1113ft 94kts
06-Oct-18 12:13 37.825309 -121.594907 156 989ft 90kts
06-Oct-18 12:14 37.822991 -121.615567 315 196ft 78kts
06-Oct-18 12:15 37.831156 -121.625953 290 83ft 22kts
06-Oct-18 12:16 37.829072 -121.624572 136 83ft 39kts
06-Oct-18 12:17 37.826571 -121.621186 108 83ft 2kts
06-Oct-18 12:18 37.836315 -121.632416 313 379ft 86kts
06-Oct-18 12:19 37.856700 -121.636676 14 1328ft 83kts
06-Oct-18 12:20 37.878911 -121.629059 11 2173ft 87kts
06-Oct-18 12:21 37.902120 -121.622937 14 2993ft 88kts
06-Oct-18 12:22 37.930338 -121.616841 13 3066ft 108kts
06-Oct-18 12:23 37.961101 -121.609369 10 3066ft 115kts
06-Oct-18 12:24 37.992771 -121.602218 10 3066ft 116kts
06-Oct-18 12:25 38.024588 -121.595029 10 3066ft 116kts
06-Oct-18 12:26 38.056465 -121.587819 10 3067ft 116kts
06-Oct-18 12:27 38.088313 -121.580608 10 3066ft 116kts
06-Oct-18 12:28 38.131045 -121.571049 10 3065ft 116kts
06-Oct-18 12:29 38.194849 -121.557138 9 3066ft 116kts

Navigation Log

Ident Type
Flight plan parsing failed, navigation log unavailable